Time;durP1;ratioP1;P1;durP2;ratioP2;P2;SDS_P1;SDS_P2;PMS_P1;PMS_P2;Temp;Humidity;BMP_temperature;BMP_pressure;BME280_temperature;BME280_humidity;BME280_pressure;Samples;Min_cycle;Max_cycle;Signal;HPM_P1;HPM_P2
2022/08/13 00:00:22;;;;;;;;;;;;;;;;;;5066541;28;19927;-60
2022/08/13 00:02:49;;;;;;;;;;;;;;;;;;5066239;28;19948;-59
2022/08/13 00:05:15;;;;;;;;;;;;;;;;;;5065629;28;19931;-60
2022/08/13 00:07:41;;;;;;;;;;;;;;;;;;5067265;28;20382;-60
2022/08/13 00:10:10;;;;;;;;;;;;;;;;;;5067239;28;19925;-60
2022/08/13 00:15:21;;;;;;;;;;;;;;;;;;5065799;28;20011;-60
2022/08/13 00:17:49;;;;;;;;;;;;;;;;;;5066617;28;19967;-60
2022/08/13 00:20:15;;;;;;;;;;;;;;;;;;5066008;28;19964;-60
2022/08/13 00:22:41;;;;;;;;;;;;;;;;;;5066930;28;20023;-60
2022/08/13 00:25:07;;;;;;;;;;;;;;;;;;5066858;28;20441;-59
2022/08/13 00:27:34;;;;;;;;;;;;;;;;;;5066939;28;19929;-60
2022/08/13 00:30:00;;;;;;;;;;;;;;;;;;5066340;28;19925;-60
2022/08/13 00:32:30;;;;;;;;;;;;;;;;;;5066187;28;20011;-60
2022/08/13 00:34:56;;;;;;;;;;;;;;;;;;5065901;28;19924;-60
2022/08/13 00:37:22;;;;;;;;;;;;;;;;;;5066041;28;19931;-60
2022/08/13 00:39:48;;;;;;;;;;;;;;;;;;5066428;28;19969;-60
2022/08/13 00:42:14;;;;;;;;;;;;;;;;;;5065754;28;19925;-60
2022/08/13 00:44:40;;;;;;;;;;;;;;;;;;5065999;28;20448;-60
2022/08/13 00:49:51;;;;;;;;;;;;;;;;;;5047755;28;19971;-60
2022/08/13 00:52:17;;;;;;;;;;;;;;;;;;5066269;28;19925;-60
2022/08/13 00:54:43;;;;;;;;;;;;;;;;;;5065584;28;20015;-60
2022/08/13 00:57:12;;;;;;;;;;;;;;;;;;5065202;28;19924;-60
2022/08/13 00:59:38;;;;;;;;;;;;;;;;;;5066361;28;20382;-60
2022/08/13 01:02:04;;;;;;;;;;;;;;;;;;5066247;28;20011;-60
2022/08/13 01:04:30;;;;;;;;;;;;;;;;;;5064935;28;20572;-59
2022/08/13 01:06:57;;;;;;;;;;;;;;;;;;5065719;28;19978;-60
2022/08/13 01:09:28;;;;;;;;;;;;;;;;;;5065142;28;20421;-59
2022/08/13 01:11:54;;;;;;;;;;;;;;;;;;5065461;28;19932;-60
2022/08/13 01:14:20;;;;;;;;;;;;;;;;;;5065486;28;19924;-60
2022/08/13 01:16:46;;;;;;;;;;;;;;;;;;5065767;28;20290;-60
2022/08/13 01:19:12;;;;;;;;;;;;;;;;;;5047155;28;19985;-60
2022/08/13 01:21:39;;;;;;;;;;;;;;;;;;5047327;28;20336;-60
2022/08/13 01:24:06;;;;;;;;;;;;;;;;;;5065487;28;20281;-60
2022/08/13 01:26:32;;;;;;;;;;;;;;;;;;5065180;28;19932;-60
2022/08/13 01:29:01;;;;;;;;;;;;;;;;;;5065424;28;19932;-60
2022/08/13 01:31:27;;;;;;;;;;;;;;;;;;5065240;28;19925;-60
2022/08/13 01:33:59;;;;;;;;;;;;;;;;;;5065363;28;19925;-60
2022/08/13 01:36:25;;;;;;;;;;;;;;;;;;5064525;28;19924;-59
2022/08/13 01:38:51;;;;;;;;;;;;;;;;;;5064890;28;20000;-60
2022/08/13 01:41:18;;;;;;;;;;;;;;;;;;5065002;28;20368;-60
2022/08/13 01:43:44;;;;;;;;;;;;;;;;;;5065241;28;20369;-60
2022/08/13 01:46:10;;;;;;;;;;;;;;;;;;5064964;28;19932;-60
2022/08/13 01:51:21;;;;;;;;;;;;;;;;;;5064154;28;20336;-60
2022/08/13 01:53:49;;;;;;;;;;;;;;;;;;5064819;28;19969;-59
2022/08/13 01:56:16;;;;;;;;;;;;;;;;;;5064712;28;19923;-60
2022/08/13 01:58:42;;;;;;;;;;;;;;;;;;5064580;28;19931;-60
2022/08/13 02:01:08;;;;;;;;;;;;;;;;;;5065154;28;20109;-60
2022/08/13 02:03:34;;;;;;;;;;;;;;;;;;5047039;28;19935;-60
2022/08/13 02:06:01;;;;;;;;;;;;;;;;;;5063664;28;19932;-60
2022/08/13 02:08:26;;;;;;;;;;;;;;;;;;5063737;28;21038;-60
2022/08/13 02:10:53;;;;;;;;;;;;;;;;;;5064510;28;19924;-60
2022/08/13 02:13:19;;;;;;;;;;;;;;;;;;5063328;28;20043;-60
2022/08/13 02:15:45;;;;;;;;;;;;;;;;;;5064622;28;20599;-60
2022/08/13 02:18:17;;;;;;;;;;;;;;;;;;5064244;28;19934;-60
2022/08/13 02:20:44;;;;;;;;;;;;;;;;;;5063883;28;19932;-60
2022/08/13 02:23:10;;;;;;;;;;;;;;;;;;5064386;28;19928;-60
2022/08/13 02:25:36;;;;;;;;;;;;;;;;;;5064625;28;19924;-60
2022/08/13 02:28:02;;;;;;;;;;;;;;;;;;5063658;28;20305;-60
2022/08/13 02:30:29;;;;;;;;;;;;;;;;;;5046285;28;20366;-59
2022/08/13 02:32:55;;;;;;;;;;;;;;;;;;5064322;28;19932;-60
2022/08/13 02:35:21;;;;;;;;;;;;;;;;;;5063290;28;19951;-60
2022/08/13 02:37:47;;;;;;;;;;;;;;;;;;5064019;28;19925;-60
2022/08/13 02:42:59;;;;;;;;;;;;;;;;;;5064308;28;19924;-59
2022/08/13 02:45:25;;;;;;;;;;;;;;;;;;5063872;28;19925;-60
2022/08/13 02:47:51;;;;;;;;;;;;;;;;;;5064117;28;19985;-60
2022/08/13 02:50:20;;;;;;;;;;;;;;;;;;5062344;28;19931;-60
2022/08/13 02:52:46;;;;;;;;;;;;;;;;;;5063648;28;19955;-61
2022/08/13 02:55:12;;;;;;;;;;;;;;;;;;5064085;28;20595;-61
2022/08/13 02:57:38;;;;;;;;;;;;;;;;;;5064526;28;20016;-58
2022/08/13 03:00:04;;;;;;;;;;;;;;;;;;5064556;28;19947;-58
2022/08/13 03:02:32;;;;;;;;;;;;;;;;;;5063821;28;19948;-59
2022/08/13 03:04:59;;;;;;;;;;;;;;;;;;5063301;28;19932;-59
2022/08/13 03:07:26;;;;;;;;;;;;;;;;;;5063578;28;20397;-59
2022/08/13 03:09:52;;;;;;;;;;;;;;;;;;5063792;28;20433;-58
2022/08/13 03:12:18;;;;;;;;;;;;;;;;;;5063789;28;19931;-59
2022/08/13 03:14:44;;;;;;;;;;;;;;;;;;5063887;28;20042;-59
2022/08/13 03:17:10;;;;;;;;;;;;;;;;;;5063497;28;20301;-60
2022/08/13 03:19:36;;;;;;;;;;;;;;;;;;5064879;28;19924;-59
2022/08/13 03:22:02;;;;;;;;;;;;;;;;;;5067557;28;19995;-59
2022/08/13 03:24:28;;;;;;;;;;;;;;;;;;5067720;28;19932;-58
2022/08/13 03:26:54;;;;;;;;;;;;;;;;;;5067991;28;19924;-59
2022/08/13 03:29:20;;;;;;;;;;;;;;;;;;5067552;28;20011;-59
2022/08/13 03:31:47;;;;;;;;;;;;;;;;;;5067664;28;19936;-59
2022/08/13 03:34:13;;;;;;;;;;;;;;;;;;5066942;28;19978;-58
2022/08/13 03:36:39;;;;;;;;;;;;;;;;;;5067136;28;19921;-59
2022/08/13 03:39:05;;;;;;;;;;;;;;;;;;5068056;28;19924;-58
2022/08/13 03:41:31;;;;;;;;;;;;;;;;;;5067289;28;20003;-59
2022/08/13 03:43:59;;;;;;;;;;;;;;;;;;5067292;28;20011;-59
2022/08/13 03:46:25;;;;;;;;;;;;;;;;;;5067379;28;20273;-58
2022/08/13 03:48:51;;;;;;;;;;;;;;;;;;5065794;28;19995;-59
2022/08/13 03:51:20;;;;;;;;;;;;;;;;;;5066880;28;20676;-59
2022/08/13 03:53:46;;;;;;;;;;;;;;;;;;5067297;28;20567;-59
2022/08/13 03:56:13;;;;;;;;;;;;;;;;;;5067166;28;19932;-59
2022/08/13 03:58:39;;;;;;;;;;;;;;;;;;5067016;28;19928;-59
2022/08/13 04:01:06;;;;;;;;;;;;;;;;;;5067496;28;19928;-59
2022/08/13 04:03:35;;;;;;;;;;;;;;;;;;5066512;28;20012;-59
2022/08/13 04:06:01;;;;;;;;;;;;;;;;;;5066292;28;20367;-58
2022/08/13 04:08:27;;;;;;;;;;;;;;;;;;5047751;28;19924;-59
2022/08/13 04:10:53;;;;;;;;;;;;;;;;;;5066846;28;20374;-59
2022/08/13 04:13:19;;;;;;;;;;;;;;;;;;5066450;28;19925;-58
2022/08/13 04:15:45;;;;;;;;;;;;;;;;;;5066137;28;19932;-59
2022/08/13 04:18:11;;;;;;;;;;;;;;;;;;5066158;28;19920;-59
2022/08/13 04:20:38;;;;;;;;;;;;;;;;;;5066303;28;19932;-58
2022/08/13 04:23:07;;;;;;;;;;;;;;;;;;5066340;28;19924;-59
2022/08/13 04:25:33;;;;;;;;;;;;;;;;;;5066398;28;19924;-59
2022/08/13 04:27:59;;;;;;;;;;;;;;;;;;5066962;28;20640;-58
2022/08/13 04:30:25;;;;;;;;;;;;;;;;;;5047869;28;20372;-59
2022/08/13 04:32:51;;;;;;;;;;;;;;;;;;5065489;28;19925;-59
2022/08/13 04:35:17;;;;;;;;;;;;;;;;;;5065415;28;19925;-58
2022/08/13 04:37:43;;;;;;;;;;;;;;;;;;5065849;28;20301;-59
2022/08/13 04:40:10;;;;;;;;;;;;;;;;;;5066130;28;19925;-59
2022/08/13 04:42:36;;;;;;;;;;;;;;;;;;5066791;28;20000;-59
2022/08/13 04:45:02;;;;;;;;;;;;;;;;;;5066522;28;20433;-59
2022/08/13 04:47:28;;;;;;;;;;;;;;;;;;5065893;28;20074;-59
2022/08/13 04:49:54;;;;;;;;;;;;;;;;;;5065520;28;19920;-60
2022/08/13 04:52:20;;;;;;;;;;;;;;;;;;5066089;28;19925;-60
2022/08/13 04:54:47;;;;;;;;;;;;;;;;;;5066095;28;19928;-60
2022/08/13 04:57:13;;;;;;;;;;;;;;;;;;5047935;28;20381;-60
2022/08/13 04:59:39;;;;;;;;;;;;;;;;;;5066349;28;19924;-60
2022/08/13 05:02:05;;;;;;;;;;;;;;;;;;5065828;28;19990;-60
2022/08/13 05:04:31;;;;;;;;;;;;;;;;;;5065111;28;19979;-60
2022/08/13 05:06:57;;;;;;;;;;;;;;;;;;5065849;28;20414;-59
2022/08/13 05:09:23;;;;;;;;;;;;;;;;;;5065809;28;19975;-60
2022/08/13 05:11:49;;;;;;;;;;;;;;;;;;5065703;28;19976;-60
2022/08/13 05:14:16;;;;;;;;;;;;;;;;;;5065710;28;20001;-60
2022/08/13 05:16:42;;;;;;;;;;;;;;;;;;5065512;28;19958;-60
2022/08/13 05:19:08;;;;;;;;;;;;;;;;;;5065287;28;19931;-59
2022/08/13 05:21:34;;;;;;;;;;;;;;;;;;5065608;28;19931;-58
2022/08/13 05:24:00;;;;;;;;;;;;;;;;;;5061848;28;20011;-59
2022/08/13 05:26:28;;;;;;;;;;;;;;;;;;5064867;28;20023;-59
2022/08/13 05:28:56;;;;;;;;;;;;;;;;;;5064140;28;19925;-59
2022/08/13 05:31:22;;;;;;;;;;;;;;;;;;5065280;28;19925;-59
2022/08/13 05:33:49;;;;;;;;;;;;;;;;;;5063826;28;19983;-60
2022/08/13 05:36:15;;;;;;;;;;;;;;;;;;5064995;28;19954;-59
2022/08/13 05:38:41;;;;;;;;;;;;;;;;;;5064695;28;19924;-59
2022/08/13 05:41:07;;;;;;;;;;;;;;;;;;5065573;28;19928;-59
2022/08/13 05:43:35;;;;;;;;;;;;;;;;;;5064323;28;19931;-60
2022/08/13 05:46:02;;;;;;;;;;;;;;;;;;5049963;28;19925;-59
2022/08/13 05:48:28;;;;;;;;;;;;;;;;;;5044271;28;19929;-59
2022/08/13 05:50:54;;;;;;;;;;;;;;;;;;5044681;28;19920;-59
2022/08/13 05:53:21;;;;;;;;;;;;;;;;;;5044420;28;20420;-60
2022/08/13 05:55:47;;;;;;;;;;;;;;;;;;5044923;28;20364;-60
2022/08/13 05:58:13;;;;;;;;;;;;;;;;;;5043224;28;19936;-60
2022/08/13 06:03:25;;;;;;;;;;;;;;;;;;5041332;28;19935;-61
2022/08/13 06:05:53;;;;;;;;;;;;;;;;;;5042212;28;19929;-59
2022/08/13 06:08:19;;;;;;;;;;;;;;;;;;5056287;28;19929;-58
2022/08/13 06:10:45;;;;;;;;;;;;;;;;;;5042188;28;19931;-57
2022/08/13 06:13:13;;;;;;;;;;;;;;;;;;5042473;28;19928;-58
2022/08/13 06:15:39;;;;;;;;;;;;;;;;;;5042825;28;19955;-59
2022/08/13 06:18:05;;;;;;;;;;;;;;;;;;5042779;28;19921;-58
2022/08/13 06:20:31;;;;;;;;;;;;;;;;;;5041108;28;19929;-58
2022/08/13 06:22:58;;;;;;;;;;;;;;;;;;5041523;28;19928;-58
2022/08/13 06:25:27;;;;;;;;;;;;;;;;;;5041970;28;19948;-58
2022/08/13 06:27:54;;;;;;;;;;;;;;;;;;5042242;28;19983;-58
2022/08/13 06:30:20;;;;;;;;;;;;;;;;;;5042042;28;19928;-57
2022/08/13 06:32:46;;;;;;;;;;;;;;;;;;5042200;28;20609;-58
2022/08/13 06:35:13;;;;;;;;;;;;;;;;;;5041357;28;19950;-58
2022/08/13 06:37:41;;;;;;;;;;;;;;;;;;5023627;28;19933;-59
2022/08/13 06:40:07;;;;;;;;;;;;;;;;;;5042719;28;19948;-57
2022/08/13 06:42:34;;;;;;;;;;;;;;;;;;5042148;28;20594;-58
2022/08/13 06:45:00;;;;;;;;;;;;;;;;;;5041905;28;19932;-58
2022/08/13 06:47:29;;;;;;;;;;;;;;;;;;5041585;28;19936;-57
2022/08/13 06:49:55;;;;;;;;;;;;;;;;;;5040989;28;20386;-58
2022/08/13 06:52:21;;;;;;;;;;;;;;;;;;5023601;28;19928;-58
2022/08/13 06:54:48;;;;;;;;;;;;;;;;;;5041539;28;19936;-58
2022/08/13 06:57:14;;;;;;;;;;;;;;;;;;5041727;28;19928;-58
2022/08/13 06:59:40;;;;;;;;;;;;;;;;;;5041675;28;20309;-59
2022/08/13 07:02:08;;;;;;;;;;;;;;;;;;5042436;28;19924;-58
2022/08/13 07:04:34;;;;;;;;;;;;;;;;;;5041408;28;19976;-58
2022/08/13 07:07:00;;;;;;;;;;;;;;;;;;5042128;28;19964;-58
2022/08/13 07:09:26;;;;;;;;;;;;;;;;;;5041694;28;20136;-58
2022/08/13 07:11:52;;;;;;;;;;;;;;;;;;5041304;28;20376;-58
2022/08/13 07:14:18;;;;;;;;;;;;;;;;;;5041569;28;19994;-59
2022/08/13 07:16:44;;;;;;;;;;;;;;;;;;5024040;28;20007;-59
2022/08/13 07:19:11;;;;;;;;;;;;;;;;;;5040676;28;19929;-59
2022/08/13 07:21:37;;;;;;;;;;;;;;;;;;5042269;28;19925;-58
2022/08/13 07:24:04;;;;;;;;;;;;;;;;;;5054575;28;19929;-58
2022/08/13 07:26:30;;;;;;;;;;;;;;;;;;5063559;28;20297;-58
2022/08/13 07:28:56;;;;;;;;;;;;;;;;;;5063951;28;19972;-58
2022/08/13 07:31:22;;;;;;;;;;;;;;;;;;5063709;28;20022;-58
2022/08/13 07:33:49;;;;;;;;;;;;;;;;;;5062800;28;20415;-58
2022/08/13 07:36:15;;;;;;;;;;;;;;;;;;5045441;28;20409;-58
2022/08/13 07:38:42;;;;;;;;;;;;;;;;;;5046965;28;19925;-60
2022/08/13 07:41:10;;;;;;;;;;;;;;;;;;5044253;28;19924;-59
2022/08/13 07:43:39;;;;;;;;;;;;;;;;;;5044340;28;19925;-60
2022/08/13 07:46:07;;;;;;;;;;;;;;;;;;5044290;28;19964;-60
2022/08/13 07:48:34;;;;;;;;;;;;;;;;;;5042625;28;19971;-60
2022/08/13 07:51:00;;;;;;;;;;;;;;;;;;5044023;28;19928;-60
2022/08/13 07:53:26;;;;;;;;;;;;;;;;;;5043483;28;19971;-60
2022/08/13 07:55:54;;;;;;;;;;;;;;;;;;5043810;28;19924;-59
2022/08/13 07:58:22;;;;;;;;;;;;;;;;;;5043192;28;19947;-60
2022/08/13 08:00:48;;;;;;;;;;;;;;;;;;5025334;28;20290;-60
2022/08/13 08:03:14;;;;;;;;;;;;;;;;;;5042690;28;19986;-60
2022/08/13 08:05:40;;;;;;;;;;;;;;;;;;5043740;28;19976;-60
2022/08/13 08:08:06;;;;;;;;;;;;;;;;;;5047158;28;19925;-59
2022/08/13 08:10:32;;;;;;;;;;;;;;;;;;5046659;28;19931;-59
2022/08/13 08:12:59;;;;;;;;;;;;;;;;;;5047095;28;20055;-59
2022/08/13 08:15:26;;;;;;;;;;;;;;;;;;5046702;28;19925;-59
2022/08/13 08:17:52;;;;;;;;;;;;;;;;;;5047131;28;19944;-59
2022/08/13 08:20:18;;;;;;;;;;;;;;;;;;5046108;28;20367;-59
2022/08/13 08:22:44;;;;;;;;;;;;;;;;;;5047083;28;19974;-59
2022/08/13 08:25:10;;;;;;;;;;;;;;;;;;5046893;28;19929;-60
2022/08/13 08:27:37;;;;;;;;;;;;;;;;;;5029228;28;19929;-59
2022/08/13 08:30:03;;;;;;;;;;;;;;;;;;5046459;28;19974;-59
2022/08/13 08:32:29;;;;;;;;;;;;;;;;;;5046835;28;20555;-59
2022/08/13 08:34:55;;;;;;;;;;;;;;;;;;5046211;28;19932;-59
2022/08/13 08:42:50;;;;;;;;;;;;;;;;;;5046656;28;19972;-59
2022/08/13 08:45:18;;;;;;;;;;;;;;;;;;5046401;28;19976;-59
2022/08/13 08:47:45;;;;;;;;;;;;;;;;;;5046396;28;19925;-59
2022/08/13 08:50:11;;;;;;;;;;;;;;;;;;5045626;28;20388;-59
2022/08/13 08:55:22;;;;;;;;;;;;;;;;;;5046164;28;19925;-60
2022/08/13 08:57:48;;;;;;;;;;;;;;;;;;5046204;28;20291;-60
2022/08/13 09:00:14;;;;;;;;;;;;;;;;;;5045958;28;19925;-60
2022/08/13 09:02:40;;;;;;;;;;;;;;;;;;5045623;28;20008;-60
2022/08/13 09:05:06;;;;;;;;;;;;;;;;;;5044856;28;19925;-59
2022/08/13 09:07:36;;;;;;;;;;;;;;;;;;5045773;28;19925;-59
2022/08/13 09:10:02;;;;;;;;;;;;;;;;;;5045844;28;19936;-59
2022/08/13 09:12:28;;;;;;;;;;;;;;;;;;5045751;28;19978;-59
2022/08/13 09:14:56;;;;;;;;;;;;;;;;;;5045863;28;19921;-60
2022/08/13 09:17:22;;;;;;;;;;;;;;;;;;5044566;28;19925;-60
2022/08/13 09:19:48;;;;;;;;;;;;;;;;;;5048062;28;19948;-59
2022/08/13 09:22:15;;;;;;;;;;;;;;;;;;5059775;28;19967;-60
2022/08/13 09:24:41;;;;;;;;;;;;;;;;;;5065517;28;20290;-60
2022/08/13 09:27:07;;;;;;;;;;;;;;;;;;5062371;28;19924;-60
2022/08/13 09:29:33;;;;;;;;;;;;;;;;;;5055042;28;19925;-60
2022/08/13 09:31:58;;;;;;;;;;;;;;;;;;5053669;28;19951;-60
2022/08/13 09:34:25;;;;;;;;;;;;;;;;;;5063955;28;19924;-60
2022/08/13 09:36:57;;;;;;;;;;;;;;;;;;5065225;28;19925;-60
2022/08/13 09:39:23;;;;;;;;;;;;;;;;;;5065255;28;20011;-60
2022/08/13 09:41:50;;;;;;;;;;;;;;;;;;5065367;28;20031;-60
2022/08/13 09:44:16;;;;;;;;;;;;;;;;;;5064356;28;20421;-60
2022/08/13 09:46:42;;;;;;;;;;;;;;;;;;5064970;28;19924;-60
2022/08/13 09:49:11;;;;;;;;;;;;;;;;;;5064799;28;20029;-59
2022/08/13 09:51:37;;;;;;;;;;;;;;;;;;5065342;28;19924;-60
2022/08/13 09:54:03;;;;;;;;;;;;;;;;;;5065134;28;19924;-59
2022/08/13 09:56:29;;;;;;;;;;;;;;;;;;5064704;28;19936;-60
2022/08/13 09:58:55;;;;;;;;;;;;;;;;;;5064290;28;20041;-60
2022/08/13 10:01:21;;;;;;;;;;;;;;;;;;5064578;28;20473;-60
2022/08/13 10:03:48;;;;;;;;;;;;;;;;;;5064101;28;20086;-60
2022/08/13 10:06:16;;;;;;;;;;;;;;;;;;5046739;28;19970;-60
2022/08/13 10:08:42;;;;;;;;;;;;;;;;;;5064844;28;19921;-60
2022/08/13 10:11:08;;;;;;;;;;;;;;;;;;5064690;28;20328;-60
2022/08/13 10:13:34;;;;;;;;;;;;;;;;;;5064505;28;19964;-60
2022/08/13 10:16:00;;;;;;;;;;;;;;;;;;5064919;28;19963;-60
2022/08/13 10:18:31;;;;;;;;;;;;;;;;;;5063691;28;19980;-60
2022/08/13 10:20:57;;;;;;;;;;;;;;;;;;5064622;28;19924;-60
2022/08/13 10:23:23;;;;;;;;;;;;;;;;;;5046547;28;19924;-59
2022/08/13 10:25:52;;;;;;;;;;;;;;;;;;5064398;28;20662;-59
2022/08/13 10:28:18;;;;;;;;;;;;;;;;;;5063562;28;19936;-60
2022/08/13 10:30:44;;;;;;;;;;;;;;;;;;5063942;28;19931;-60
2022/08/13 10:33:12;;;;;;;;;;;;;;;;;;5063515;28;19928;-60
2022/08/13 10:35:38;;;;;;;;;;;;;;;;;;5064763;28;20010;-59
2022/08/13 10:38:06;;;;;;;;;;;;;;;;;;5064185;28;19932;-59
2022/08/13 10:40:32;;;;;;;;;;;;;;;;;;5063570;28;20305;-59
2022/08/13 10:42:58;;;;;;;;;;;;;;;;;;5064164;28;19924;-59
2022/08/13 10:45:24;;;;;;;;;;;;;;;;;;5064050;28;19924;-60
2022/08/13 10:47:50;;;;;;;;;;;;;;;;;;5063430;28;19924;-59
2022/08/13 10:50:16;;;;;;;;;;;;;;;;;;5064182;28;19921;-60
2022/08/13 10:52:42;;;;;;;;;;;;;;;;;;5064177;28;19925;-60
2022/08/13 10:55:12;;;;;;;;;;;;;;;;;;5063660;28;19928;-59
2022/08/13 10:57:38;;;;;;;;;;;;;;;;;;5064617;28;19924;-59
2022/08/13 11:00:04;;;;;;;;;;;;;;;;;;5060808;28;19925;-59
2022/08/13 11:02:30;;;;;;;;;;;;;;;;;;5052848;28;19935;-59
2022/08/13 11:04:56;;;;;;;;;;;;;;;;;;5051469;28;19929;-59
2022/08/13 11:07:22;;;;;;;;;;;;;;;;;;5053182;28;19932;-59
2022/08/13 11:09:48;;;;;;;;;;;;;;;;;;5052406;28;19924;-59
2022/08/13 11:12:16;;;;;;;;;;;;;;;;;;5054568;28;19924;-60
2022/08/13 11:14:42;;;;;;;;;;;;;;;;;;5053768;28;19932;-59
2022/08/13 11:17:11;;;;;;;;;;;;;;;;;;5050541;28;19955;-59
2022/08/13 11:19:40;;;;;;;;;;;;;;;;;;5048933;28;19933;-59
2022/08/13 11:22:06;;;;;;;;;;;;;;;;;;5051644;28;19925;-59
2022/08/13 11:24:32;;;;;;;;;;;;;;;;;;5054106;28;19931;-59
2022/08/13 11:26:58;;;;;;;;;;;;;;;;;;5063989;28;20006;-59
2022/08/13 11:29:24;;;;;;;;;;;;;;;;;;5063647;28;19970;-60
2022/08/13 11:31:50;;;;;;;;;;;;;;;;;;5064009;28;19976;-59
2022/08/13 11:34:16;;;;;;;;;;;;;;;;;;5062771;28;20024;-58
2022/08/13 11:36:42;;;;;;;;;;;;;;;;;;5062982;28;20023;-59
2022/08/13 11:39:08;;;;;;;;;;;;;;;;;;5063995;28;19924;-59
2022/08/13 11:41:34;;;;;;;;;;;;;;;;;;5066983;28;19925;-59
2022/08/13 11:44:00;;;;;;;;;;;;;;;;;;5067480;28;19924;-59
2022/08/13 11:46:27;;;;;;;;;;;;;;;;;;5058892;28;19925;-59
2022/08/13 11:48:53;;;;;;;;;;;;;;;;;;5046789;28;20030;-59
2022/08/13 11:51:19;;;;;;;;;;;;;;;;;;5047033;28;19925;-60
2022/08/13 11:53:45;;;;;;;;;;;;;;;;;;5046603;28;19925;-59
2022/08/13 11:56:11;;;;;;;;;;;;;;;;;;5054082;28;20593;-60
2022/08/13 11:58:37;;;;;;;;;;;;;;;;;;5049447;28;19925;-59
2022/08/13 12:01:06;;;;;;;;;;;;;;;;;;5048941;28;19932;-59
2022/08/13 12:03:32;;;;;;;;;;;;;;;;;;5066134;28;19931;-59
2022/08/13 12:05:58;;;;;;;;;;;;;;;;;;5066092;28;19924;-59
2022/08/13 12:08:25;;;;;;;;;;;;;;;;;;5066149;28;19929;-60
2022/08/13 12:10:51;;;;;;;;;;;;;;;;;;5063260;28;19925;-60
2022/08/13 12:13:17;;;;;;;;;;;;;;;;;;5051230;28;19925;-60
2022/08/13 12:15:43;;;;;;;;;;;;;;;;;;5051765;28;19932;-57
2022/08/13 12:18:09;;;;;;;;;;;;;;;;;;5045531;28;19932;-57
2022/08/13 12:20:35;;;;;;;;;;;;;;;;;;5044548;28;20416;-57
2022/08/13 12:23:01;;;;;;;;;;;;;;;;;;5044495;28;19931;-57
2022/08/13 12:25:27;;;;;;;;;;;;;;;;;;5043927;28;19928;-57
2022/08/13 12:27:53;;;;;;;;;;;;;;;;;;5044711;28;19936;-57
2022/08/13 12:30:19;;;;;;;;;;;;;;;;;;5053487;28;20135;-57
2022/08/13 12:32:45;;;;;;;;;;;;;;;;;;5051309;28;20658;-57
2022/08/13 12:35:11;;;;;;;;;;;;;;;;;;5053881;28;19974;-57
2022/08/13 12:37:37;;;;;;;;;;;;;;;;;;5056365;28;19936;-57
2022/08/13 12:40:03;;;;;;;;;;;;;;;;;;5064345;28;19928;-57
2022/08/13 12:42:29;;;;;;;;;;;;;;;;;;5063985;28;20345;-56
2022/08/13 12:44:55;;;;;;;;;;;;;;;;;;5062825;28;19978;-59
2022/08/13 12:47:21;;;;;;;;;;;;;;;;;;5057349;28;19929;-59
2022/08/13 12:49:47;;;;;;;;;;;;;;;;;;5065275;28;20046;-59
2022/08/13 12:52:13;;;;;;;;;;;;;;;;;;5065499;28;19940;-59
2022/08/13 12:54:39;;;;;;;;;;;;;;;;;;5066302;28;19930;-59
2022/08/13 12:57:05;;;;;;;;;;;;;;;;;;5066339;28;19931;-59
2022/08/13 12:59:31;;;;;;;;;;;;;;;;;;5066243;28;19947;-58
2022/08/13 13:01:59;;;;;;;;;;;;;;;;;;5066014;28;19924;-59
2022/08/13 13:04:25;;;;;;;;;;;;;;;;;;5064427;28;19932;-59
2022/08/13 13:06:51;;;;;;;;;;;;;;;;;;5066042;28;19928;-59
2022/08/13 13:09:17;;;;;;;;;;;;;;;;;;5065507;28;20259;-59
2022/08/13 13:11:45;;;;;;;;;;;;;;;;;;5064959;28;21345;-59
2022/08/13 13:14:11;;;;;;;;;;;;;;;;;;5065629;28;19970;-59
2022/08/13 13:16:38;;;;;;;;;;;;;;;;;;5066093;28;19962;-59
2022/08/13 13:19:04;;;;;;;;;;;;;;;;;;5065155;28;19967;-59
2022/08/13 13:21:30;;;;;;;;;;;;;;;;;;5065556;28;19964;-59
2022/08/13 13:23:56;;;;;;;;;;;;;;;;;;5065583;28;19924;-59
2022/08/13 13:26:22;;;;;;;;;;;;;;;;;;5065231;28;20031;-59
2022/08/13 13:28:52;;;;;;;;;;;;;;;;;;5065700;28;19920;-59
2022/08/13 13:31:18;;;;;;;;;;;;;;;;;;5064737;28;19924;-59
2022/08/13 13:33:44;;;;;;;;;;;;;;;;;;5064506;28;20041;-59
2022/08/13 13:36:10;;;;;;;;;;;;;;;;;;5065182;28;19939;-59
2022/08/13 13:38:36;;;;;;;;;;;;;;;;;;5065402;28;19932;-59
2022/08/13 13:41:02;;;;;;;;;;;;;;;;;;5065291;28;19921;-59
2022/08/13 13:43:28;;;;;;;;;;;;;;;;;;5064839;28;20678;-59
2022/08/13 13:45:54;;;;;;;;;;;;;;;;;;5064674;28;20382;-59
2022/08/13 13:48:20;;;;;;;;;;;;;;;;;;5063888;28;20558;-59
2022/08/13 13:50:46;;;;;;;;;;;;;;;;;;5064445;28;20374;-59
2022/08/13 13:53:12;;;;;;;;;;;;;;;;;;5062131;28;20520;-59
2022/08/13 13:55:38;;;;;;;;;;;;;;;;;;5042979;28;20023;-60
2022/08/13 13:58:05;;;;;;;;;;;;;;;;;;5050694;28;19928;-59
2022/08/13 14:00:32;;;;;;;;;;;;;;;;;;5053088;28;19932;-59
2022/08/13 14:02:58;;;;;;;;;;;;;;;;;;5053132;28;19935;-58
2022/08/13 14:05:24;;;;;;;;;;;;;;;;;;5045495;28;20025;-60
2022/08/13 14:07:50;;;;;;;;;;;;;;;;;;5046666;28;20079;-59
2022/08/13 14:10:16;;;;;;;;;;;;;;;;;;5042262;28;19936;-59
2022/08/13 14:12:42;;;;;;;;;;;;;;;;;;5042592;28;19935;-59
2022/08/13 14:15:08;;;;;;;;;;;;;;;;;;5042426;28;19940;-59
2022/08/13 14:17:34;;;;;;;;;;;;;;;;;;5046011;28;19924;-60
2022/08/13 14:20:00;;;;;;;;;;;;;;;;;;5050401;28;19967;-59
2022/08/13 14:22:26;;;;;;;;;;;;;;;;;;5049304;28;19964;-59
2022/08/13 14:24:52;;;;;;;;;;;;;;;;;;5047257;28;19931;-59
2022/08/13 14:27:18;;;;;;;;;;;;;;;;;;5042149;28;19924;-59
2022/08/13 14:29:44;;;;;;;;;;;;;;;;;;5055172;28;20007;-59
2022/08/13 14:32:10;;;;;;;;;;;;;;;;;;5061053;28;20019;-59
2022/08/13 14:34:37;;;;;;;;;;;;;;;;;;5062802;28;20297;-59
2022/08/13 14:37:03;;;;;;;;;;;;;;;;;;5061531;28;19934;-59
2022/08/13 14:39:29;;;;;;;;;;;;;;;;;;5061751;28;19982;-59
2022/08/13 14:41:55;;;;;;;;;;;;;;;;;;5050938;28;19924;-59
2022/08/13 14:44:21;;;;;;;;;;;;;;;;;;5051869;28;19925;-59
2022/08/13 14:46:47;;;;;;;;;;;;;;;;;;5052924;28;21103;-59
2022/08/13 14:49:13;;;;;;;;;;;;;;;;;;5061101;28;19924;-59
2022/08/13 14:51:39;;;;;;;;;;;;;;;;;;5061953;28;19982;-60
2022/08/13 14:54:06;;;;;;;;;;;;;;;;;;5061860;28;20514;-59
2022/08/13 14:56:31;;;;;;;;;;;;;;;;;;5061610;28;19924;-59
2022/08/13 14:58:58;;;;;;;;;;;;;;;;;;5061770;28;20479;-59
2022/08/13 15:01:24;;;;;;;;;;;;;;;;;;5061219;28;19947;-59
2022/08/13 15:03:50;;;;;;;;;;;;;;;;;;5061307;28;20503;-59
2022/08/13 15:06:17;;;;;;;;;;;;;;;;;;5061249;28;19933;-59
2022/08/13 15:08:44;;;;;;;;;;;;;;;;;;5061885;28;20362;-59
2022/08/13 15:11:12;;;;;;;;;;;;;;;;;;5057953;28;20034;-60
2022/08/13 15:13:38;;;;;;;;;;;;;;;;;;5050032;28;19928;-59
2022/08/13 15:16:07;;;;;;;;;;;;;;;;;;5051077;28;20015;-60
2022/08/13 15:18:33;;;;;;;;;;;;;;;;;;5046422;28;19928;-59
2022/08/13 15:20:59;;;;;;;;;;;;;;;;;;5065977;28;20423;-59
2022/08/13 15:23:25;;;;;;;;;;;;;;;;;;5065457;28;20448;-59
2022/08/13 15:25:51;;;;;;;;;;;;;;;;;;5065697;28;19944;-60
2022/08/13 15:28:17;;;;;;;;;;;;;;;;;;5058982;28;19928;-60
2022/08/13 15:30:45;;;;;;;;;;;;;;;;;;5055721;28;19949;-60
2022/08/13 15:33:12;;;;;;;;;;;;;;;;;;5054142;28;20004;-60
2022/08/13 15:35:39;;;;;;;;;;;;;;;;;;5054293;28;20482;-60
2022/08/13 15:38:05;;;;;;;;;;;;;;;;;;5050477;28;19929;-59
2022/08/13 15:40:31;;;;;;;;;;;;;;;;;;5059570;28;19924;-60
2022/08/13 15:42:57;;;;;;;;;;;;;;;;;;5066932;28;19931;-60
2022/08/13 15:45:24;;;;;;;;;;;;;;;;;;5062196;28;19928;-59
2022/08/13 15:47:50;;;;;;;;;;;;;;;;;;5056535;28;20030;-60
2022/08/13 15:50:16;;;;;;;;;;;;;;;;;;5055463;28;19975;-60
2022/08/13 15:52:42;;;;;;;;;;;;;;;;;;5057306;28;19964;-60
2022/08/13 15:55:08;;;;;;;;;;;;;;;;;;5057340;28;19920;-60
2022/08/13 15:57:34;;;;;;;;;;;;;;;;;;5049681;28;19929;-59
2022/08/13 16:00:00;;;;;;;;;;;;;;;;;;5051537;28;20040;-60
2022/08/13 16:02:27;;;;;;;;;;;;;;;;;;5047520;28;19985;-59
2022/08/13 16:04:54;;;;;;;;;;;;;;;;;;5048773;28;20041;-59
2022/08/13 16:07:20;;;;;;;;;;;;;;;;;;5052512;28;19936;-59
2022/08/13 16:09:46;;;;;;;;;;;;;;;;;;5054672;28;19928;-59
2022/08/13 16:12:12;;;;;;;;;;;;;;;;;;5053545;28;20037;-59
2022/08/13 16:14:38;;;;;;;;;;;;;;;;;;5050607;28;19932;-60
2022/08/13 16:17:04;;;;;;;;;;;;;;;;;;5053551;28;19925;-60
2022/08/13 16:19:31;;;;;;;;;;;;;;;;;;5051238;28;19936;-59
2022/08/13 16:21:57;;;;;;;;;;;;;;;;;;5060653;28;19928;-60
2022/08/13 16:24:23;;;;;;;;;;;;;;;;;;5047516;28;19925;-59
2022/08/13 16:26:49;;;;;;;;;;;;;;;;;;5055886;28;20294;-60
2022/08/13 16:29:15;;;;;;;;;;;;;;;;;;5054606;28;19924;-60
2022/08/13 16:31:41;;;;;;;;;;;;;;;;;;5049009;28;19987;-60
2022/08/13 16:34:07;;;;;;;;;;;;;;;;;;5060822;28;20019;-59
2022/08/13 16:36:33;;;;;;;;;;;;;;;;;;5048957;28;20509;-59
2022/08/13 16:38:59;;;;;;;;;;;;;;;;;;5051161;28;19993;-59
2022/08/13 16:41:25;;;;;;;;;;;;;;;;;;5055344;28;20386;-59
2022/08/13 16:43:52;;;;;;;;;;;;;;;;;;5048062;28;19947;-59
2022/08/13 16:46:18;;;;;;;;;;;;;;;;;;5051871;28;19929;-59
2022/08/13 16:48:44;;;;;;;;;;;;;;;;;;5052904;28;19925;-59
2022/08/13 16:51:11;;;;;;;;;;;;;;;;;;5051540;28;19925;-59
2022/08/13 16:53:37;;;;;;;;;;;;;;;;;;5053521;28;19974;-58
2022/08/13 16:56:03;;;;;;;;;;;;;;;;;;5052288;28;20008;-58
2022/08/13 16:58:29;;;;;;;;;;;;;;;;;;5049571;28;20625;-58
2022/08/13 17:00:56;;;;;;;;;;;;;;;;;;5054877;28;19928;-58